Keysville, GA

5:21 AM EDT on May 03, 2015 (GMT -0400)
Thomson-McDuffie County | | Change Station
CLOSE
Current Station
Airport
Location: Thomson,
Elevation: 499 ft
Nearby Weather Stations

Elev 499 ft 33.53 °N, 82.52 °W | Updated 26 minutes ago

Partly Cloudy
Partly Cloudy
52 °F
Feels Like 52 °F
N
0
Wind Variable Wind from North

Today
High -- | Low -- °F
--% Chance of Precip.
Yesterday
High -- | Low -- °F
Precip. -- in
6:39 AM 8:12 PM
Waxing Gibbous, 99% visible
Pressure 30.15 in
Visibility 7.0 miles
Clouds Clear
Dew Point 52 °F
Humidity 100%
Rainfall 0.00 in
Snow Depth Not available.
UV 0 out of 12
Pollen 8.20 out of 12
Air Quality Not available.
Flu Activity Sporadic
METAR KHQU 030855Z AUTO 00000KT 7SM CLR 11/11 A3015 RMK AO1 T01090109

More Conditions Fewer Conditions

Pressure 30.15 in
Visibility 7.0 miles
Clouds Clear
Dew Point 52 °F
Humidity 100%
Rainfall 0.00 in
Snow Depth Not available.
UV 0 out of 12
Pollen 8.20 out of 12
Air Quality Not available.
Flu Activity Sporadic
METAR KHQU 030855Z AUTO 00000KT 7SM CLR 11/11 A3015 RMK AO1 T01090109

More Conditions Fewer Conditions

Nepal has a long way to go to dig out and rebuild from a devastating earthquake. We have teamed up with several charities and organizations to make contributing to the relief effort as easy as possible.
How you can help: Portlight Strategies | Red Cross

10-Day Weather Forecast

Almanac

Astronomy

May. 03, 2015 Rise Set
Actual Time
Civil Twilight
Nautical Twilight
Astronomical Twilight
Moon
Length of Visible Light
Length of Day
Tomorrow will be .
, % of the Moon is Illuminated

Today's Extremes

State Highs State Lows

Community

WunderPhotos

Upload Photos

1,818,183 photos uploaded!

WunderBlogs® & News

Nearby

Air Quality

  Air Quality AQ Index Pollutant
Not available.

Snow Depth

Station Depth Elevation

Earthquake Activity

City Distance Mag. Time & Date
Minimum magnitude displayed is 2.5.

Coastal Water Temperatures

Place Temperature

Stations

Nearby Weather Stations

Station Location Temp. Windchill Dew Point Humidity Wind Precip. Elev Updated Type